Flight Track Log - Related Links

Times and Time Zones

All times are in EDT time to prevent confusion due to time zone crossing. See the FIN666 flight status page for this flight to view local times or setup timezone preferences in your user account.

Time Position Orientation Groundspeed Altitude Reporting Facility
EDT Latitude Longitude Course Direction KTS MPH feet Rate Location/Type
Mon 07:29:00 AM 55.9164 13.2747 49° Northeast  Level Estimated
Mon 07:30:00 AM 55.9905 13.4309 50° Northeast  Level Estimated
Mon 07:31:00 AM 56.0644 13.5877 50° Northeast  Level Estimated
Mon 07:32:00 AM 56.1381 13.7451 50° Northeast  Level Estimated
Mon 07:33:00 AM 56.2116 13.9031 50° Northeast  Level Estimated
Mon 07:34:00 AM 56.2850 14.0617 50° Northeast  Level Estimated
Mon 07:35:00 AM 56.3581 14.2208 50° Northeast  Level Estimated
Mon 07:36:00 AM 56.4310 14.3807 50° Northeast  Level Estimated
Mon 07:37:00 AM 56.5037 14.5411 51° Northeast  Level Estimated
Mon 07:38:00 AM 56.5762 14.7021 51° Northeast  Level Estimated
Mon 07:39:00 AM 56.6485 14.8638 51° Northeast  Level Estimated
Mon 07:40:00 AM 56.7206 15.0261 51° Northeast  Level Estimated
Mon 07:41:00 AM 56.7924 15.1890 51° Northeast  Level Estimated
Mon 07:42:00 AM 56.8641 15.3525 51° Northeast  Level Estimated
Mon 07:43:00 AM 56.9355 15.5166 51° Northeast  Level Estimated
Mon 07:44:00 AM 57.0068 15.6814 52° Northeast  Level Estimated
Mon 07:45:00 AM 57.0778 15.8468 52° Northeast  Level Estimated
Mon 07:46:00 AM 57.1486 16.0129 52° Northeast  Level Estimated
Mon 07:47:00 AM 57.2191 16.1795 52° Northeast  Level Estimated
Mon 07:48:00 AM 57.2915 16.3518 52° Northeast  Level Estimated
Mon 07:49:00 AM 57.3637 16.5247 52° Northeast  Level Estimated
Mon 07:50:00 AM 57.4357 16.6983 52° Northeast  Level Estimated
Mon 07:51:00 AM 57.5074 16.8726 53° Northeast  Level Estimated
Mon 07:52:00 AM 57.5788 17.0476 53° Northeast  Level Estimated
Mon 07:53:00 AM 57.6501 17.2232 53° Northeast  Level Estimated
Mon 07:54:00 AM 57.7210 17.3996 53° Northeast  Level Estimated
Mon 07:55:00 AM 57.7918 17.5766 53° Northeast  Level Estimated
Mon 07:56:00 AM 57.8622 17.7544 53° Northeast  Level Estimated
Mon 07:57:00 AM 57.9325 17.9328 53° Northeast  Level Estimated
Mon 07:58:00 AM 58.0024 18.1119 54° Northeast  Level Estimated
Mon 07:59:00 AM 58.0722 18.2918 54° Northeast  Level Estimated
Mon 08:00:00 AM 58.1416 18.4723 54° Northeast  Level Estimated
Mon 08:01:00 AM 58.2108 18.6535 54° Northeast  Level Estimated
Mon 08:02:00 AM 58.2798 18.8355 54° Northeast  Level Estimated
Mon 08:03:00 AM 58.3485 19.0181 54° Northeast  Level Estimated
Mon 08:04:00 AM 58.4169 19.2015 54° Northeast  Level Estimated
Mon 08:05:00 AM 58.4851 19.3856 55° Northeast  Level Estimated
Mon 08:06:00 AM 58.5530 19.5704 55° Northeast  Level Estimated
Mon 08:07:00 AM 58.6207 19.7559 55° Northeast  Level Estimated
Mon 08:08:00 AM 58.6880 19.9421 55° Northeast  Level Estimated
Mon 08:09:00 AM 58.7551 20.1291 55° Northeast  Level Estimated
Mon 08:10:00 AM 58.8220 20.3167 55° Northeast  Level Estimated
Mon 08:11:00 AM 58.8885 20.5051 56° Northeast  Level Estimated
Mon 08:12:00 AM 58.9548 20.6942 56° Northeast  Level Estimated
Mon 08:13:00 AM 59.0208 20.8841 56° Northeast  Level Estimated
Mon 08:14:00 AM 59.0866 21.0746 56° Northeast  Level Estimated
Mon 08:15:00 AM 59.1520 21.2659 56° Northeast  Level Estimated
Mon 08:16:00 AM 59.2172 21.4580 56° Northeast  Level Estimated
Mon 08:17:00 AM 59.2821 21.6507 57° Northeast  Level Estimated
Mon 08:18:00 AM 59.3467 21.8442 57° Northeast  Level Estimated
Mon 08:19:00 AM 59.4110 22.0385 57° Northeast  Level Estimated
Mon 08:20:00 AM 59.4750 22.2335 57° Northeast  Level Estimated
Mon 08:21:00 AM 59.5387 22.4292 57° Northeast  Level Estimated
Mon 08:22:00 AM 59.6021 22.6256 57° Northeast  Level Estimated
Mon 08:23:00 AM 59.6653 22.8228 58° Northeast  Level Estimated
Mon 08:24:00 AM 59.7281 23.0208 58° Northeast  Level Estimated
Mon 08:25:00 AM 59.7907 23.2194 58° Northeast  Level Estimated
Mon 08:26:00 AM 59.8529 23.4188 58° Northeast  Level Estimated
Mon 08:27:00 AM 59.9148 23.6190 58° Northeast  Level Estimated
Mon 08:28:00 AM 59.9765 23.8199 58° Northeast  Level Estimated
Mon 08:29:00 AM 60.0378 24.0216 59° Northeast  Level Estimated
Mon 08:30:00 AM 60.0988 24.2240 59° Northeast  Level Estimated
Mon 08:31:00 AM 60.1595 24.4272 59° Northeast  Level Estimated
Mon 08:32:00 AM 60.2200 24.6311 59° Northeast  Level Estimated
Mon 08:33:00 AM 60.2800 24.8357 59° Northeast  Level Estimated
Mon 08:34:00 AM 60.3172 24.9633 59° Northeast  Level Estimated
Mon 08:35:00 AM 60.3172 24.9633 37° Northeast  Level Estimated
Mon 08:36:00 AM 60.3172 24.9633 37° Northeast  Level Estimated
Mon 08:37:00 AM 60.3172 24.9633 37° Northeast  Level Estimated
Mon 08:38:00 AM 60.3172 24.9633 37° Northeast  Level Estimated
Mon 08:39:00 AM 60.3172 24.9633 37° Northeast  Level Estimated
Mon 08:40:00 AM 60.3172 24.9633 37° Northeast  Level Estimated
Mon 08:41:00 AM 60.3172 24.9633 37° Northeast  Level Estimated
Mon 08:42:00 AM 60.3172 24.9633 37° Northeast  Level Estimated
Mon 08:43:00 AM 60.3172 24.9633 37° Northeast  Level Estimated
Mon 08:44:00 AM 60.3172 24.9633 37° Northeast  Level Estimated
Mon 08:45:00 AM 60.3172 24.9633 37° Northeast  Level Estimated

Login

Don't have an account? Register now (free) for customized features, flight alerts, and more!